Time;durP1;ratioP1;P1;durP2;ratioP2;P2;SDS_P1;SDS_P2;PMS_P1;PMS_P2;Temp;Humidity;BMP_temperature;BMP_pressure;BME280_temperature;BME280_humidity;BME280_pressure;Samples;Min_cycle;Max_cycle;Signal;HPM_P1;HPM_P2
2022/02/03 00:22:00;;;;;;;7.27;4.20;;;9.50;99.90;;;;;;5004166;28;20182;-88
2022/02/03 00:23:06;;;;;;;6.53;2.90;;;9.50;99.90;;;;;;5001673;28;20670;-88
2022/02/03 00:25:40;;;;;;;5.00;2.87;;;9.50;99.90;;;;;;5000874;28;20183;-90
2022/02/03 00:28:27;;;;;;;7.87;3.27;;;9.50;99.90;;;;;;4999420;28;20262;-90
2022/02/03 00:48:15;;;;;;;5.30;2.40;;;9.60;99.90;;;;;;5001050;28;20189;-90
2022/02/03 00:50:11;;;;;;;5.27;2.30;;;9.60;99.80;;;;;;5002018;28;20237;-88
2022/02/03 00:52:36;;;;;;;3.97;2.30;;;9.50;99.40;;;;;;4999394;28;20261;-88
2022/02/03 00:55:04;;;;;;;5.43;2.20;;;9.50;99.60;;;;;;4997874;28;20187;-89
2022/02/03 00:57:42;;;;;;;6.13;1.70;;;9.50;99.30;;;;;;4997397;28;20175;-88
2022/02/03 01:00:11;;;;;;;4.97;2.00;;;9.50;99.30;;;;;;4997877;28;20187;-89
2022/02/03 01:02:42;;;;;;;5.33;1.90;;;9.50;99.40;;;;;;5002621;28;20178;-89
2022/02/03 01:05:08;;;;;;;4.50;2.20;;;9.50;99.70;;;;;;4982394;28;20191;-88
2022/02/03 01:07:37;;;;;;;7.53;2.40;;;9.50;99.40;;;;;;4997767;28;20190;-89
2022/02/03 01:10:13;;;;;;;3.73;2.00;;;9.50;99.50;;;;;;5001007;28;20237;-90
2022/02/03 01:13:11;;;;;;;4.70;1.90;;;9.60;99.30;;;;;;4999307;28;20206;-87
2022/02/03 01:15:48;;;;;;;6.97;2.30;;;9.70;99.20;;;;;;4998304;28;20587;-88
2022/02/03 01:18:45;;;;;;;4.57;2.10;;;9.60;99.00;;;;;;4998800;28;20530;-88
2022/02/03 01:36:49;;;;;;;5.97;2.10;;;9.50;99.80;;;;;;4998370;28;20210;-87
2022/02/03 01:43:45;;;;;;;4.73;2.37;;;9.50;99.90;;;;;;5016886;28;20193;-88
2022/02/03 01:46:16;;;;;;;5.63;2.20;;;9.40;99.90;;;;;;5005055;28;20175;-88
2022/02/03 01:54:06;;;;;;;5.87;2.67;;;9.40;99.90;;;;;;5012584;28;20176;-88
2022/02/03 01:57:05;;;;;;;6.47;2.30;;;9.40;99.90;;;;;;5013262;28;20183;-87
2022/02/03 01:59:34;;;;;;;4.17;2.60;;;9.40;99.90;;;;;;5002836;28;20178;-88
2022/02/03 02:02:01;;;;;;;5.70;2.50;;;9.40;99.90;;;;;;4995114;28;20187;-89
2022/02/03 02:05:00;;;;;;;7.50;2.93;;;9.40;99.90;;;;;;4978731;28;20544;-89
2022/02/03 02:07:30;;;;;;;5.00;2.50;;;9.50;99.90;;;;;;4979901;28;20179;-87
2022/02/03 02:11:03;;;;;;;7.83;3.30;;;9.50;99.90;;;;;;4977794;28;20183;-87
2022/02/03 02:13:49;;;;;;;8.60;2.67;;;9.40;99.90;;;;;;4977250;28;20223;-87
2022/02/03 02:16:47;;;;;;;7.83;3.27;;;9.30;99.90;;;;;;4977370;28;20203;-89
2022/02/03 02:19:26;;;;;;;7.10;3.23;;;9.30;99.90;;;;;;4977311;28;20179;-88
2022/02/03 02:36:58;;;;;;;4.27;2.67;;;9.30;99.90;;;;;;4979120;28;20670;-88
2022/02/03 02:39:24;;;;;;;8.17;3.90;;;9.20;99.90;;;;;;4983829;28;20186;-86
2022/02/03 02:42:18;;;;;;;7.07;3.40;;;9.10;99.90;;;;;;4985995;28;20223;-89
2022/02/03 02:45:01;;;;;;;5.60;3.50;;;9.10;99.90;;;;;;4991451;28;20175;-86
2022/02/03 02:47:42;;;;;;;5.60;3.60;;;9.20;99.90;;;;;;4986926;28;20262;-88
2022/02/03 02:50:18;;;;;;;8.03;3.70;;;9.10;99.90;;;;;;4998472;28;20156;-87
2022/02/03 02:53:13;;;;;;;8.03;4.07;;;9.10;99.90;;;;;;5013850;28;20195;-87
2022/02/03 03:33:15;;;;;;;7.73;4.77;;;9.10;99.90;;;;;;4978443;28;20880;-88
2022/02/03 03:35:46;;;;;;;9.83;5.10;;;9.10;99.90;;;;;;4995850;28;20187;-86
2022/02/03 03:38:18;;;;;;;8.00;4.70;;;9.10;99.90;;;;;;4982559;28;20164;-88
2022/02/03 03:40:52;;;;;;;11.57;4.97;;;9.10;99.90;;;;;;4988286;28;20175;-85
2022/02/03 03:43:36;;;;;;;7.57;4.57;;;9.00;99.90;;;;;;4993813;28;20194;-86
2022/02/03 03:46:36;;;;;;;10.57;4.90;;;9.10;99.90;;;;;;4982381;28;20179;-87
2022/02/03 03:49:10;;;;;;;8.43;4.50;;;9.00;99.90;;;;;;4983972;28;20196;-86
2022/02/03 03:51:46;;;;;;;9.17;4.80;;;9.00;99.90;;;;;;4977185;28;20258;-87
2022/02/03 03:54:28;;;;;;;8.37;4.63;;;9.00;99.90;;;;;;4978127;28;20258;-87
2022/02/03 03:57:17;;;;;;;8.70;5.53;;;9.10;99.90;;;;;;4976874;28;20178;-86
2022/02/03 04:40:53;;;;;;;11.27;8.83;;;9.20;99.90;;;;;;5002205;28;20169;-88
2022/02/03 04:55:30;;;;;;;12.93;8.17;;;9.00;99.90;;;;;;5001336;28;20266;-88
2022/02/03 05:04:28;;;;;;;9.07;6.33;;;9.00;99.90;;;;;;5012041;28;20178;-85
2022/02/03 05:07:16;;;;;;;8.40;5.87;;;9.00;99.90;;;;;;5010232;28;20155;-86
2022/02/03 05:10:18;;;;;;;8.40;5.43;;;9.00;99.00;;;;;;5019710;28;20290;-87
2022/02/03 05:13:27;;;;;;;10.10;5.50;;;9.10;98.00;;;;;;5015672;28;20277;-86
2022/02/03 05:17:07;;;;;;;9.80;5.20;;;9.00;97.00;;;;;;5000185;28;20286;-88
2022/02/03 05:26:33;;;;;;;7.50;4.50;;;8.80;96.00;;;;;;4956384;28;20174;-87
2022/02/03 05:44:16;;;;;;;7.93;4.00;;;8.80;95.30;;;;;;4981479;28;20191;-88
2022/02/03 05:55:22;;;;;;;9.53;4.10;;;8.90;94.40;;;;;;5011973;28;20151;-89
2022/02/03 06:01:13;;;;;;;8.13;4.63;;;8.80;94.70;;;;;;5000525;28;20189;-86
2022/02/03 06:14:30;;;;;;;9.27;4.07;;;8.90;91.90;;;;;;5019001;28;20159;-88
2022/02/03 06:22:50;;;;;;;7.97;4.17;;;8.90;92.60;;;;;;4979401;28;20621;-91
2022/02/03 06:27:44;;;;;;;8.37;4.07;;;8.80;92.50;;;;;;4999293;28;20181;-89
2022/02/03 06:30:12;;;;;;;10.60;4.37;;;9.00;92.60;;;;;;4999209;28;20518;-90
2022/02/03 06:32:39;;;;;;;12.07;4.00;;;8.70;92.90;;;;;;5000635;28;20260;-89
2022/02/03 06:35:08;;;;;;;8.27;3.87;;;8.80;93.20;;;;;;5003210;28;20196;-89
2022/02/03 06:37:35;;;;;;;9.57;4.67;;;8.70;93.00;;;;;;4998174;28;20167;-89
2022/02/03 06:40:01;;;;;;;8.37;4.13;;;8.80;93.20;;;;;;4999126;28;20171;-90
2022/02/03 06:42:28;;;;;;;6.60;4.13;;;8.80;93.50;;;;;;5041142;23;20317;-87
2022/02/03 06:45:15;;;;;;;10.93;4.87;;;9.00;94.20;;;;;;4999130;28;20183;-88
2022/02/03 06:50:48;;;;;;;9.87;4.23;;;8.80;93.70;;;;;;4958641;29;20171;-88
2022/02/03 06:53:24;;;;;;;10.83;4.57;;;8.80;94.30;;;;;;4993028;28;20195;-87
2022/02/03 06:55:59;;;;;;;11.10;4.83;;;8.90;93.60;;;;;;4996064;28;20534;-87
2022/02/03 06:58:33;;;;;;;7.90;4.67;;;8.80;94.50;;;;;;4995799;28;20534;-87
2022/02/03 07:03:28;;;;;;;7.57;4.33;;;8.70;94.20;;;;;;4997383;28;20175;-87
2022/02/03 07:05:54;;;;;;;9.70;4.20;;;8.70;94.70;;;;;;5000115;28;20178;-87
2022/02/03 07:08:21;;;;;;;8.13;4.10;;;8.70;95.10;;;;;;4995467;28;20175;-89
2022/02/03 07:10:49;;;;;;;8.23;4.63;;;8.70;95.10;;;;;;4997338;28;20179;-87
2022/02/03 07:13:16;;;;;;;10.53;4.53;;;8.70;94.60;;;;;;4996715;28;20206;-87
2022/02/03 07:15:48;;;;;;;7.07;4.00;;;8.60;94.80;;;;;;4994462;28;20170;-88
2022/02/03 07:18:14;;;;;;;10.33;4.37;;;8.60;94.90;;;;;;4998571;28;20198;-88
2022/02/03 07:20:42;;;;;;;10.53;4.10;;;8.60;95.00;;;;;;5004854;28;20229;-90
2022/02/03 07:23:09;;;;;;;7.50;4.30;;;8.60;95.00;;;;;;5014166;28;20181;-88
2022/02/03 07:25:38;;;;;;;12.27;4.67;;;8.60;94.80;;;;;;5016599;28;20164;-87
2022/02/03 07:28:12;;;;;;;8.07;4.07;;;8.60;94.60;;;;;;5002404;28;20187;-87
2022/02/03 07:30:37;;;;;;;9.57;4.30;;;8.60;94.50;;;;;;4998522;28;20237;-88
2022/02/03 07:33:06;;;;;;;8.73;4.13;;;8.80;94.30;;;;;;4996322;28;20578;-86
2022/02/03 07:35:34;;;;;;;9.67;4.60;;;8.70;94.20;;;;;;5013046;28;20183;-87
2022/02/03 07:38:01;;;;;;;9.13;3.83;;;8.70;93.60;;;;;;4993764;28;20172;-87
2022/02/03 07:40:27;;;;;;;10.83;4.47;;;8.80;93.20;;;;;;5009661;28;20250;-85
2022/02/03 07:42:55;;;;;;;13.77;4.80;;;8.70;93.80;;;;;;4991234;28;20647;-87
2022/02/03 07:45:22;;;;;;;10.43;4.87;;;8.70;93.90;;;;;;4995828;28;20152;-86
2022/02/03 07:47:52;;;;;;;8.47;4.00;;;8.70;93.90;;;;;;4994378;28;20194;-87
2022/02/03 07:50:19;;;;;;;14.93;4.07;;;8.70;94.10;;;;;;4968917;28;20579;-86
2022/02/03 07:52:55;;;;;;;10.53;4.80;;;8.70;94.30;;;;;;4983540;28;20215;-88
2022/02/03 07:55:24;;;;;;;8.87;4.17;;;8.80;93.80;;;;;;4982851;28;20172;-85
2022/02/03 07:57:51;;;;;;;12.17;4.60;;;8.90;92.90;;;;;;4983132;28;20175;-86
2022/02/03 08:00:18;;;;;;;9.77;4.33;;;8.80;93.50;;;;;;4981389;28;20171;-86
2022/02/03 08:02:46;;;;;;;6.80;4.20;;;8.80;93.80;;;;;;4982796;28;20191;-85
2022/02/03 08:05:18;;;;;;;8.70;4.23;;;8.70;93.90;;;;;;4995712;28;20171;-85
2022/02/03 08:07:55;;;;;;;9.90;4.67;;;9.00;93.10;;;;;;5002590;28;20167;-88
2022/02/03 08:10:41;;;;;;;10.80;4.53;;;8.70;93.80;;;;;;5002932;28;20171;-84
2022/02/03 08:13:11;;;;;;;10.50;4.73;;;8.70;94.40;;;;;;5000632;28;20268;-86
2022/02/03 08:15:40;;;;;;;8.40;4.30;;;8.70;94.40;;;;;;4999906;28;20751;-85
2022/02/03 08:18:10;;;;;;;11.50;4.70;;;8.80;94.00;;;;;;5001145;28;20203;-87
2022/02/03 08:20:47;;;;;;;9.67;4.50;;;8.80;93.70;;;;;;4992482;28;20266;-86
2022/02/03 08:25:45;;;;;;;8.73;4.60;;;8.50;94.70;;;;;;5001194;28;20179;-86
2022/02/03 08:31:07;;;;;;;11.27;4.40;;;8.70;94.80;;;;;;4996712;28;20186;-87
2022/02/03 08:33:34;;;;;;;9.47;4.80;;;8.70;94.20;;;;;;4986590;28;20199;-86
2022/02/03 08:36:03;;;;;;;11.17;5.30;;;8.70;94.30;;;;;;4985076;28;20191;-85
2022/02/03 08:41:01;;;;;;;11.77;6.23;;;8.80;94.40;;;;;;4992572;28;20191;-87
2022/02/03 08:43:34;;;;;;;9.73;5.40;;;8.70;94.30;;;;;;4977261;28;20207;-86
2022/02/03 08:46:05;;;;;;;12.13;5.50;;;8.70;94.60;;;;;;4989925;28;20241;-87
2022/02/03 08:48:32;;;;;;;16.50;5.20;;;8.80;93.70;;;;;;4990060;28;20183;-87
2022/02/03 08:51:02;;;;;;;9.73;5.00;;;8.80;93.90;;;;;;4985914;28;20587;-87
2022/02/03 08:53:37;;;;;;;15.10;4.73;;;8.80;93.70;;;;;;5000655;28;20195;-86
2022/02/03 08:56:23;;;;;;;11.33;5.13;;;8.70;93.40;;;;;;5017461;28;20166;-87
2022/02/03 09:35:01;;;;;;;9.50;3.73;;;8.80;91.00;;;;;;4996061;28;20653;-87
2022/02/03 09:59:32;;;;;;;9.67;4.00;;;8.80;88.00;;;;;;5011313;28;20177;-88
2022/02/03 10:02:06;;;;;;;12.90;4.30;;;8.80;88.20;;;;;;5017101;28;20194;-89
2022/02/03 10:04:43;;;;;;;10.00;4.43;;;8.80;88.90;;;;;;5018789;28;20189;-90
2022/02/03 10:07:19;;;;;;;9.10;4.43;;;8.70;90.10;;;;;;5012824;28;20167;-86
2022/02/03 10:09:52;;;;;;;12.93;4.80;;;8.80;90.20;;;;;;4994237;28;20170;-86
2022/02/03 10:13:01;;;;;;;13.83;5.37;;;8.70;90.80;;;;;;4994108;28;20195;-88
2022/02/03 10:15:29;;;;;;;11.53;4.93;;;8.60;91.60;;;;;;4980976;28;20183;-86
2022/02/03 10:17:58;;;;;;;9.50;5.10;;;8.60;91.70;;;;;;4978730;28;20536;-87
2022/02/03 10:20:27;;;;;;;10.60;4.93;;;8.70;91.90;;;;;;4978702;28;20203;-87
2022/02/03 10:23:04;;;;;;;12.67;4.97;;;9.00;92.10;;;;;;4979635;28;20184;-89
2022/02/03 10:25:36;;;;;;;11.67;4.80;;;8.70;91.20;;;;;;4990531;28;20208;-89
2022/02/03 10:28:10;;;;;;;12.13;4.90;;;8.80;91.00;;;;;;4996857;28;20255;-89
2022/02/03 10:33:12;;;;;;;14.17;4.30;;;8.90;90.40;;;;;;4980364;28;20195;-88
2022/02/03 10:35:57;;;;;;;11.33;4.33;;;8.80;90.40;;;;;;4992699;28;20190;-90
2022/02/03 10:44:08;;;;;;;13.13;4.50;;;9.10;90.20;;;;;;5000449;28;20198;-87
2022/02/03 10:54:48;;;;;;;13.00;4.83;;;8.80;91.10;;;;;;4984543;28;20191;-89
2022/02/03 11:05:19;;;;;;;10.17;5.10;;;8.70;92.60;;;;;;4992683;28;20164;-88
2022/02/03 11:07:58;;;;;;;11.60;4.47;;;8.70;92.60;;;;;;4980927;28;20312;-89
2022/02/03 11:10:32;;;;;;;9.47;4.97;;;8.60;92.70;;;;;;4986745;28;20175;-89
2022/02/03 11:13:01;;;;;;;8.23;4.80;;;8.70;92.60;;;;;;5001608;28;20598;-88
2022/02/03 11:15:30;;;;;;;11.27;4.87;;;8.80;92.40;;;;;;5004076;28;20174;-85
2022/02/03 11:17:59;;;;;;;11.27;5.13;;;8.80;92.20;;;;;;4987866;28;20192;-87
2022/02/03 11:20:34;;;;;;;12.40;5.53;;;8.80;92.40;;;;;;4982518;28;20187;-87
2022/02/03 11:26:27;;;;;;;15.03;4.93;;;8.90;91.70;;;;;;4984445;28;20175;-88
2022/02/03 11:53:42;;;;;;;12.03;5.63;;;8.80;92.40;;;;;;4986648;28;20191;-88
2022/02/03 12:03:11;;;;;;;10.17;5.10;;;8.90;93.30;;;;;;4982385;28;20195;-90
2022/02/03 12:17:16;;;;;;;12.43;6.13;;;9.10;91.50;;;;;;4983640;28;20674;-87
2022/02/03 12:19:24;;;;;;;10.50;5.40;;;9.20;91.30;;;;;;4985552;28;20211;-89
2022/02/03 12:22:27;;;;;;;15.60;6.60;;;9.00;91.70;;;;;;5001147;28;20284;-89
2022/02/03 12:25:10;;;;;;;13.53;6.20;;;9.00;91.90;;;;;;5012088;28;20183;-88
2022/02/03 12:27:54;;;;;;;14.70;6.53;;;9.00;92.20;;;;;;5008866;28;20227;-88
2022/02/03 12:30:34;;;;;;;14.23;6.97;;;9.10;91.40;;;;;;5001249;28;20606;-89
2022/02/03 12:39:20;;;;;;;13.53;5.77;;;9.20;91.10;;;;;;4941644;29;20228;-88
2022/02/03 12:42:08;;;;;;;11.47;5.97;;;9.10;91.30;;;;;;4975782;28;20199;-87
2022/02/03 12:44:38;;;;;;;16.13;5.77;;;9.10;91.00;;;;;;4995835;28;20330;-88
2022/02/03 12:47:05;;;;;;;11.23;6.63;;;9.20;90.50;;;;;;4985453;28;20229;-88
2022/02/03 12:49:37;;;;;;;12.97;6.00;;;9.20;90.10;;;;;;4980640;28;20183;-88
2022/02/03 12:52:24;;;;;;;9.77;5.70;;;9.10;90.70;;;;;;5000911;28;20595;-90
2022/02/03 12:54:53;;;;;;;14.00;6.00;;;9.10;90.60;;;;;;4999768;28;20186;-89
2022/02/03 12:57:34;;;;;;;11.83;5.63;;;9.00;91.90;;;;;;5000712;28;20210;-90
2022/02/03 13:00:11;;;;;;;14.40;6.43;;;9.00;92.30;;;;;;5002359;28;20225;-87
2022/02/03 13:02:37;;;;;;;12.17;7.13;;;8.80;92.70;;;;;;4999757;28;20183;-87
2022/02/03 13:05:02;;;;;;;17.30;7.27;;;8.90;92.70;;;;;;4999937;28;20155;-88
2022/02/03 13:07:29;;;;;;;14.90;7.87;;;8.90;92.90;;;;;;5018784;28;20208;-88
2022/02/03 13:10:10;;;;;;;10.83;7.33;;;8.90;93.00;;;;;;5015163;28;20211;-87
2022/02/03 13:12:45;;;;;;;14.60;7.57;;;8.90;93.60;;;;;;5008285;28;20230;-90
2022/02/03 13:15:47;;;;;;;13.47;7.13;;;9.00;93.70;;;;;;5002061;28;20170;-88
2022/02/03 13:18:21;;;;;;;11.13;7.03;;;9.00;93.80;;;;;;5003780;28;20171;-88
2022/02/03 13:21:00;;;;;;;11.73;6.93;;;9.00;93.30;;;;;;5003048;28;20635;-90
2022/02/03 13:23:34;;;;;;;11.40;6.63;;;9.10;93.90;;;;;;5014615;28;20167;-88
2022/02/03 13:26:15;;;;;;;11.37;6.73;;;8.80;94.20;;;;;;5019453;28;20183;-89
2022/02/03 13:29:03;;;;;;;15.40;7.10;;;8.70;95.30;;;;;;5018814;28;20167;-90
2022/02/03 13:31:52;;;;;;;12.83;7.00;;;8.50;96.30;;;;;;5014219;28;20183;-88
2022/02/03 13:34:32;;;;;;;12.17;6.67;;;8.50;96.60;;;;;;4995284;28;20385;-90
2022/02/03 13:37:14;;;;;;;13.73;7.33;;;8.60;96.40;;;;;;4993478;28;20207;-89
2022/02/03 13:39:45;;;;;;;15.70;7.73;;;8.70;96.60;;;;;;4989805;28;20189;-88
2022/02/03 13:42:12;;;;;;;11.53;7.60;;;8.60;97.10;;;;;;4999653;28;20295;-90
2022/02/03 13:44:41;;;;;;;13.47;7.40;;;8.60;97.60;;;;;;5000097;28;20231;-88
2022/02/03 13:47:20;;;;;;;15.30;8.27;;;8.50;97.80;;;;;;4999430;28;20176;-87
2022/02/03 13:50:05;;;;;;;14.13;9.30;;;8.50;98.10;;;;;;4998402;28;20234;-90
2022/02/03 13:52:53;;;;;;;12.70;7.60;;;8.50;98.70;;;;;;4999295;28;20225;-87
2022/02/03 14:21:05;;;;;;;11.53;9.10;;;8.90;98.60;;;;;;4999575;28;20183;-88
2022/02/03 14:29:08;;;;;;;17.23;10.60;;;8.70;98.40;;;;;;4998842;28;20190;-89
2022/02/03 14:31:37;;;;;;;14.60;9.00;;;8.70;98.60;;;;;;4993686;28;20373;-86
2022/02/03 14:34:08;;;;;;;16.33;9.43;;;8.80;99.10;;;;;;4994093;28;20223;-86
2022/02/03 14:36:34;;;;;;;16.63;9.60;;;8.70;98.80;;;;;;5004396;28;20170;-87
2022/02/03 14:39:12;;;;;;;18.10;10.07;;;8.80;98.20;;;;;;5000646;28;20314;-88
2022/02/03 14:41:45;;;;;;;17.13;9.27;;;8.70;98.60;;;;;;4999983;28;20543;-88
2022/02/03 14:44:14;;;;;;;14.23;9.80;;;8.80;98.90;;;;;;4998676;28;20593;-88
2022/02/03 14:46:42;;;;;;;16.43;9.70;;;8.90;98.50;;;;;;4998451;28;20177;-88
2022/02/03 14:49:09;;;;;;;16.53;10.63;;;8.80;98.40;;;;;;4987912;28;20183;-88
2022/02/03 14:51:48;;;;;;;12.37;9.50;;;8.80;99.00;;;;;;4980961;28;20218;-87
2022/02/03 15:00:15;;;;;;;15.80;10.03;;;8.70;99.90;;;;;;5100394;28;20290;-87
2022/02/03 15:02:41;;;;;;;15.03;9.77;;;8.70;99.90;;;;;;5089087;28;20180;-87
2022/02/03 15:05:10;;;;;;;13.77;8.67;;;8.70;99.90;;;;;;5086939;28;20191;-88
2022/02/03 15:07:42;;;;;;;14.60;9.77;;;8.60;99.90;;;;;;5087069;28;20214;-90
2022/02/03 15:13:11;;;;;;;15.13;11.23;;;8.60;99.90;;;;;;5057923;28;20216;-89
2022/02/03 15:15:36;;;;;;;16.63;9.77;;;8.70;99.90;;;;;;5075967;28;20616;-86
2022/02/03 15:18:02;;;;;;;17.90;11.47;;;8.60;99.90;;;;;;5075875;28;20176;-87
2022/02/03 15:20:32;;;;;;;20.10;11.57;;;8.60;99.90;;;;;;5077159;28;20223;-88
2022/02/03 15:23:00;;;;;;;15.43;10.47;;;8.40;99.90;;;;;;5066517;28;20654;-85
2022/02/03 15:25:26;;;;;;;15.03;10.43;;;8.60;99.90;;;;;;5076186;28;20581;-86
2022/02/03 15:27:57;;;;;;;14.80;10.63;;;8.60;99.90;;;;;;5076128;28;20169;-88
2022/02/03 15:30:23;;;;;;;13.83;10.13;;;8.60;99.90;;;;;;5076508;28;20182;-87
2022/02/03 15:32:50;;;;;;;15.53;9.20;;;8.60;99.90;;;;;;5074430;28;20246;-87
2022/02/03 15:35:24;;;;;;;14.10;9.87;;;8.80;99.90;;;;;;5056977;28;20211;-88
2022/02/03 15:37:55;;;;;;;16.63;10.30;;;8.90;99.90;;;;;;5074442;28;20643;-87
2022/02/03 15:40:27;;;;;;;13.33;9.13;;;8.60;99.90;;;;;;5077048;28;20218;-86
2022/02/03 15:46:08;;;;;;;15.40;9.50;;;8.70;99.90;;;;;;5072954;28;20219;-87
2022/02/03 15:48:58;;;;;;;13.07;9.73;;;8.90;99.90;;;;;;5074496;28;20180;-86
2022/02/03 16:17:31;;;;;;;17.27;10.83;;;8.50;99.90;;;;;;5064439;28;20185;-90
2022/02/03 16:20:09;;;;;;;13.53;11.07;;;8.60;99.90;;;;;;5056791;28;20188;-90
2022/02/03 16:22:46;;;;;;;17.67;11.47;;;8.50;99.90;;;;;;5044299;28;20184;-90
2022/02/03 16:53:18;;;;;;;15.87;10.60;;;8.70;99.90;;;;;;5064455;28;20239;-89
2022/02/03 16:55:46;;;;;;;17.07;10.70;;;8.80;99.90;;;;;;5066744;28;20272;-91
2022/02/03 16:58:13;;;;;;;14.00;10.67;;;8.60;99.90;;;;;;5063580;28;20281;-90
2022/02/03 17:00:40;;;;;;;16.60;10.40;;;8.50;99.90;;;;;;5067155;28;20210;-89
2022/02/03 17:03:06;;;;;;;17.00;11.50;;;8.70;99.90;;;;;;5057625;28;20292;-88
2022/02/03 17:05:38;;;;;;;16.23;11.33;;;8.60;99.90;;;;;;5076182;28;20237;-86
2022/02/03 17:08:09;;;;;;;13.47;11.03;;;8.80;99.90;;;;;;5175555;23;20219;-88
2022/02/03 17:10:37;;;;;;;15.37;11.53;;;8.60;99.90;;;;;;5077999;28;20164;-89
2022/02/03 17:13:49;;;;;;;14.20;11.33;;;8.60;99.90;;;;;;5075382;28;20208;-90
2022/02/03 17:16:29;;;;;;;15.20;11.17;;;8.60;99.90;;;;;;5070335;28;20164;-87
2022/02/03 17:19:15;;;;;;;13.80;10.87;;;8.60;99.90;;;;;;5078986;28;20173;-88
2022/02/03 17:21:42;;;;;;;17.63;12.67;;;8.60;99.90;;;;;;5067099;28;20243;-87
2022/02/03 17:24:10;;;;;;;15.63;12.50;;;8.50;99.90;;;;;;5069053;28;20172;-88
2022/02/03 17:26:51;;;;;;;15.20;13.37;;;8.60;99.90;;;;;;5065045;28;20198;-91
2022/02/03 17:29:42;;;;;;;19.07;15.50;;;8.60;99.90;;;;;;5092404;28;20172;-86
2022/02/03 17:32:20;;;;;;;24.93;16.17;;;8.60;99.90;;;;;;5065044;28;20163;-87
2022/02/03 18:08:33;;;;;;;24.20;19.77;;;8.10;99.90;;;;;;5077068;28;20216;-89
2022/02/03 18:51:43;;;;;;;21.70;16.40;;;8.30;99.90;;;;;;5093378;28;20168;-91
2022/02/03 20:07:50;;;;;;;23.87;16.27;;;8.10;99.90;;;;;;5041465;28;20142;-87
2022/02/03 20:14:13;;;;;;;21.40;15.77;;;8.20;99.90;;;;;;5031854;28;20206;-90
2022/02/03 20:17:34;;;;;;;21.10;14.97;;;8.20;99.90;;;;;;5033230;28;20179;-89
2022/02/03 20:20:31;;;;;;;21.70;16.33;;;8.20;99.90;;;;;;5048077;28;20177;-91
2022/02/03 20:22:58;;;;;;;21.30;15.43;;;8.30;99.90;;;;;;5050967;28;20240;-87
2022/02/03 20:25:31;;;;;;;20.00;15.93;;;8.30;99.90;;;;;;5047522;28;20178;-88
2022/02/03 20:28:08;;;;;;;20.17;15.30;;;8.30;99.90;;;;;;5028406;28;20645;-89
2022/02/03 20:30:49;;;;;;;22.63;16.87;;;8.40;99.90;;;;;;5019285;28;20181;-91
2022/02/03 20:33:18;;;;;;;21.73;15.47;;;8.30;99.90;;;;;;5033670;28;20210;-88
2022/02/03 20:35:45;;;;;;;24.57;17.17;;;8.40;99.90;;;;;;5034304;28;20209;-89
2022/02/03 20:38:19;;;;;;;22.23;16.50;;;8.30;99.90;;;;;;5018287;28;20176;-87
2022/02/03 20:40:49;;;;;;;21.13;16.27;;;8.40;99.90;;;;;;5033020;28;20214;-88
2022/02/03 20:43:18;;;;;;;20.43;16.10;;;8.50;99.90;;;;;;5025542;28;20237;-84
2022/02/03 20:45:45;;;;;;;22.23;16.53;;;8.50;99.90;;;;;;5048238;28;20180;-89
2022/02/03 20:48:11;;;;;;;22.30;16.67;;;8.20;99.90;;;;;;5044088;28;20203;-87
2022/02/03 20:50:38;;;;;;;23.63;16.47;;;8.60;99.90;;;;;;5031186;28;20197;-87
2022/02/03 20:53:07;;;;;;;20.87;15.57;;;8.40;99.90;;;;;;5044650;28;20209;-87
2022/02/03 20:55:45;;;;;;;20.93;15.53;;;8.40;99.90;;;;;;5029316;28;20182;-86
2022/02/03 20:58:21;;;;;;;20.37;15.57;;;8.50;99.90;;;;;;5049887;28;20189;-88
2022/02/03 21:01:05;;;;;;;21.60;16.07;;;8.40;99.90;;;;;;5057339;28;20193;-86
2022/02/03 21:03:39;;;;;;;20.83;15.57;;;8.40;99.90;;;;;;5058764;28;20264;-86
2022/02/03 21:06:10;;;;;;;20.70;15.40;;;8.50;99.90;;;;;;5057605;28;20174;-87
2022/02/03 21:08:46;;;;;;;20.73;15.60;;;8.40;99.90;;;;;;5053413;28;20173;-87
2022/02/03 21:11:23;;;;;;;21.80;16.33;;;8.50;99.90;;;;;;5044675;28;20256;-86
2022/02/03 21:14:09;;;;;;;20.90;15.90;;;8.50;99.90;;;;;;5045243;28;20201;-87
2022/02/03 21:16:50;;;;;;;23.03;15.47;;;8.50;99.90;;;;;;5055800;28;20184;-88
2022/02/03 21:19:24;;;;;;;22.63;16.73;;;8.40;99.90;;;;;;5050562;28;20177;-90
2022/02/03 21:21:52;;;;;;;20.80;15.80;;;8.50;99.90;;;;;;5042538;28;20173;-91
2022/02/03 21:24:18;;;;;;;22.30;15.70;;;8.50;99.90;;;;;;5042418;28;20193;-93
2022/02/03 21:26:44;;;;;;;22.13;16.40;;;8.50;99.90;;;;;;5032882;28;20189;-91
2022/02/03 21:29:13;;;;;;;23.60;15.20;;;8.50;99.90;;;;;;5041327;28;20165;-92
2022/02/03 21:31:39;;;;;;;19.17;14.10;;;8.50;99.90;;;;;;5057992;28;20198;-91
2022/02/03 21:34:10;;;;;;;21.43;15.93;;;8.50;99.90;;;;;;5040728;28;20186;-92
2022/02/03 21:36:38;;;;;;;21.73;14.77;;;8.50;99.90;;;;;;5052376;28;20162;-90
2022/02/03 21:39:16;;;;;;;19.47;14.23;;;8.50;99.90;;;;;;5046881;28;20243;-90
2022/02/03 21:42:08;;;;;;;21.17;15.67;;;8.40;99.90;;;;;;5049228;28;20192;-93
2022/02/03 21:44:34;;;;;;;18.10;13.97;;;8.60;99.90;;;;;;5042317;28;20180;-87
2022/02/03 21:47:00;;;;;;;18.83;13.53;;;8.50;99.90;;;;;;5024691;28;20173;-89
2022/02/03 21:49:30;;;;;;;19.47;14.00;;;8.60;99.90;;;;;;5042203;28;20178;-89
2022/02/03 21:51:55;;;;;;;20.73;14.67;;;8.50;99.90;;;;;;5036461;28;20249;-91
2022/02/03 21:54:22;;;;;;;18.67;13.47;;;8.50;99.90;;;;;;5029689;28;20235;-88
2022/02/03 21:56:49;;;;;;;19.40;14.80;;;8.50;99.90;;;;;;4990345;28;20714;-88
2022/02/03 21:59:16;;;;;;;20.70;14.33;;;8.50;99.90;;;;;;5024757;28;20229;-88
2022/02/03 22:02:11;;;;;;;18.53;13.37;;;8.50;99.90;;;;;;5009598;28;20728;-86
2022/02/03 22:04:41;;;;;;;22.20;14.23;;;8.50;99.90;;;;;;5023647;28;20281;-88
2022/02/03 22:07:09;;;;;;;20.23;13.90;;;8.60;99.90;;;;;;5020146;28;20202;-90
2022/02/03 22:09:37;;;;;;;19.47;14.53;;;8.60;99.90;;;;;;5022942;28;20199;-90
2022/02/03 22:12:32;;;;;;;19.87;14.03;;;8.50;99.90;;;;;;5020714;28;20233;-89
2022/02/03 22:15:05;;;;;;;18.27;13.57;;;8.40;99.90;;;;;;5020079;28;20194;-87
2022/02/03 22:17:31;;;;;;;17.93;13.53;;;8.40;99.90;;;;;;5013985;28;20175;-89
2022/02/03 22:20:00;;;;;;;17.27;13.17;;;8.40;99.90;;;;;;5017557;28;20182;-87
2022/02/03 22:28:11;;;;;;;18.23;13.53;;;8.50;99.90;;;;;;5018535;28;20170;-86
2022/02/03 22:39:21;;;;;;;18.80;14.23;;;8.40;99.90;;;;;;5010317;28;20165;-89
2022/02/03 22:45:12;;;;;;;18.90;13.83;;;8.50;99.90;;;;;;4999958;28;20187;-88
2022/02/03 22:50:01;;;;;;;17.60;13.43;;;8.40;99.90;;;;;;5024524;28;20177;-87
2022/02/03 22:52:29;;;;;;;18.07;13.60;;;8.40;99.90;;;;;;5021342;28;20171;-87
2022/02/03 22:54:55;;;;;;;16.20;12.50;;;8.40;99.90;;;;;;5027404;28;20186;-87
2022/02/03 22:57:21;;;;;;;17.43;13.00;;;8.40;99.90;;;;;;5020812;28;20182;-87
2022/02/03 23:02:13;;;;;;;17.70;13.20;;;8.30;99.90;;;;;;5021612;28;20182;-87
2022/02/03 23:04:40;;;;;;;17.53;14.33;;;8.30;99.90;;;;;;5028121;28;20174;-87
2022/02/03 23:07:20;;;;;;;16.90;12.70;;;8.40;99.90;;;;;;5025134;28;20181;-88
2022/02/03 23:10:15;;;;;;;17.10;13.47;;;8.40;99.90;;;;;;5011982;28;20237;-87
2022/02/03 23:18:23;;;;;;;18.80;14.13;;;8.60;99.90;;;;;;5024811;28;20170;-89
2022/02/03 23:21:27;;;;;;;20.67;15.27;;;8.50;99.90;;;;;;5024400;28;20174;-88
2022/02/03 23:23:48;;;;;;;19.00;13.93;;;8.50;99.90;;;;;;5026540;28;20179;-87
2022/02/03 23:26:20;;;;;;;20.23;15.50;;;8.50;99.90;;;;;;5023063;28;20255;-90
2022/02/03 23:28:48;;;;;;;20.30;15.03;;;8.50;99.90;;;;;;5021815;28;20174;-90
2022/02/03 23:31:15;;;;;;;20.03;14.43;;;8.50;99.90;;;;;;5007442;28;20202;-88
2022/02/03 23:33:43;;;;;;;17.23;12.87;;;8.60;99.90;;;;;;5023964;28;20220;-89
2022/02/03 23:36:08;;;;;;;18.57;14.57;;;8.60;99.90;;;;;;5023008;28;20197;-86
2022/02/03 23:38:52;;;;;;;17.67;13.53;;;8.60;99.90;;;;;;5022790;28;20163;-86
2022/02/03 23:47:13;;;;;;;17.97;12.80;;;8.60;99.90;;;;;;5008565;28;20182;-88
